Time;durP1;ratioP1;P1;durP2;ratioP2;P2;SDS_P1;SDS_P2;PMS_P1;PMS_P2;Temp;Humidity;BMP_temperature;BMP_pressure;BME280_temperature;BME280_humidity;BME280_pressure;Samples;Min_cycle;Max_cycle;Signal;HPM_P1;HPM_P2
2023/05/06 00:02:05;;;;;;;23.13;14.13;;;;;;;10.06;100.00;101484.53;5083690;28;20051;-68
2023/05/06 00:04:31;;;;;;;23.83;14.32;;;;;;;10.04;100.00;101488.00;5083208;28;20364;-67
2023/05/06 00:06:56;;;;;;;23.05;12.95;;;;;;;9.86;100.00;101485.91;5082408;28;20028;-69
2023/05/06 00:09:23;;;;;;;22.85;12.82;;;;;;;9.77;100.00;101484.00;5084433;28;20036;-67
2023/05/06 00:11:49;;;;;;;22.55;12.43;;;;;;;9.75;100.00;101481.34;5081149;28;20384;-68
2023/05/06 00:14:14;;;;;;;22.73;13.10;;;;;;;9.81;100.00;101482.31;5084760;28;20039;-68
2023/05/06 00:16:40;;;;;;;23.90;13.90;;;;;;;9.86;100.00;101494.75;5081634;28;20032;-66
2023/05/06 00:19:05;;;;;;;21.75;11.95;;;;;;;9.79;100.00;101478.78;5083151;28;20050;-67
2023/05/06 00:21:31;;;;;;;23.65;14.38;;;;;;;9.81;100.00;101479.69;5082599;28;20032;-68
2023/05/06 00:23:56;;;;;;;23.95;14.23;;;;;;;9.77;100.00;101470.81;5081861;28;20066;-68
2023/05/06 00:26:22;;;;;;;24.15;14.02;;;;;;;9.70;100.00;101474.22;5066382;28;20028;-68
2023/05/06 00:28:47;;;;;;;23.33;12.57;;;;;;;9.60;100.00;101481.09;5081228;28;20033;-68
2023/05/06 00:31:12;;;;;;;24.63;13.75;;;;;;;9.62;100.00;101473.19;5065775;28;20028;-68
2023/05/06 00:33:38;;;;;;;24.48;14.63;;;;;;;9.46;100.00;101478.16;5081919;28;20035;-72
2023/05/06 00:36:03;;;;;;;22.67;13.32;;;;;;;9.46;100.00;101478.16;5064719;28;20037;-68
2023/05/06 00:38:29;;;;;;;23.63;14.23;;;;;;;9.45;100.00;101478.13;5083144;28;20032;-68
2023/05/06 00:40:54;;;;;;;23.15;12.35;;;;;;;9.46;100.00;101478.16;5081476;28;20060;-68
2023/05/06 00:43:20;;;;;;;22.77;12.80;;;;;;;9.45;100.00;101475.50;5084335;28;20513;-67
2023/05/06 00:45:46;;;;;;;22.38;11.50;;;;;;;9.34;100.00;101473.53;5081087;28;20020;-68
2023/05/06 00:48:13;;;;;;;21.83;11.75;;;;;;;9.30;100.00;101471.69;5083876;28;20107;-68
2023/05/06 00:50:39;;;;;;;23.27;13.15;;;;;;;9.28;100.00;101470.78;5081706;28;20064;-67
2023/05/06 00:53:07;;;;;;;21.02;11.95;;;;;;;9.27;100.00;101474.28;5082730;28;20044;-67
2023/05/06 00:55:33;;;;;;;22.42;13.00;;;;;;;9.32;100.00;101470.00;5082629;28;20024;-68
2023/05/06 00:57:58;;;;;;;21.38;12.07;;;;;;;9.20;100.00;101467.09;5081785;28;20475;-67
2023/05/06 01:00:24;;;;;;;36.25;12.20;;;;;;;9.21;100.00;101466.25;5083486;28;20414;-68
2023/05/06 01:02:49;;;;;;;22.15;12.07;;;;;;;9.19;100.00;101465.34;5080946;28;20040;-71
2023/05/06 01:05:17;;;;;;;21.80;12.40;;;;;;;9.17;100.00;101469.69;5084093;28;20016;-72
2023/05/06 01:07:46;;;;;;;23.10;12.98;;;;;;;9.11;100.00;101465.19;5080964;28;20467;-73
2023/05/06 01:10:21;;;;;;;22.83;12.88;;;;;;;9.03;100.00;101472.06;5083744;28;20024;-73
2023/05/06 01:13:08;;;;;;;19.95;10.07;;;;;;;8.84;100.00;101465.47;5076640;28;20107;-72
2023/05/06 01:15:50;;;;;;;20.20;10.75;;;;;;;8.81;100.00;101470.69;5080719;28;20036;-73
2023/05/06 01:18:19;;;;;;;20.35;10.73;;;;;;;8.80;100.00;101464.53;5080803;28;20020;-72
2023/05/06 01:20:52;;;;;;;20.70;10.98;;;;;;;8.77;100.00;101467.13;5083692;28;20025;-72
2023/05/06 01:23:18;;;;;;;22.05;10.73;;;;;;;8.77;100.00;101463.59;5076506;28;20498;-72
2023/05/06 01:25:43;;;;;;;30.08;13.23;;;;;;;8.87;100.00;101455.91;5083698;28;20020;-72
2023/05/06 01:28:10;;;;;;;21.40;11.85;;;;;;;8.77;100.00;101463.59;5081400;28;20024;-72
2023/05/06 01:30:52;;;;;;;21.17;11.63;;;;;;;8.79;100.00;101457.47;5082428;28;20052;-72
2023/05/06 01:33:31;;;;;;;21.08;11.68;;;;;;;8.76;100.00;101449.50;5078067;28;20120;-72
2023/05/06 01:36:17;;;;;;;21.08;11.10;;;;;;;8.68;100.00;101459.91;5082568;28;20073;-72
2023/05/06 01:39:09;;;;;;;20.92;11.02;;;;;;;8.64;100.00;101463.31;5084349;28;20077;-72
2023/05/06 01:41:39;;;;;;;21.05;10.95;;;;;;;8.59;100.00;101462.34;5084355;28;20476;-72
2023/05/06 01:44:06;;;;;;;20.10;9.63;;;;;;;8.60;100.00;101456.19;5085876;28;20028;-72
2023/05/06 01:46:32;;;;;;;20.40;10.63;;;;;;;8.50;100.00;101460.38;5085369;28;20089;-67
2023/05/06 01:49:00;;;;;;;23.23;12.95;;;;;;;8.55;100.00;101463.13;5086366;28;20036;-70
2023/05/06 01:51:25;;;;;;;21.02;10.10;;;;;;;8.44;100.00;101464.59;5084430;28;20115;-70
2023/05/06 01:53:50;;;;;;;21.52;10.98;;;;;;;8.42;100.00;101472.47;5087308;28;20149;-70
2023/05/06 01:56:16;;;;;;;22.48;10.00;;;;;;;8.36;100.00;101475.84;5083916;28;20035;-68
2023/05/06 01:58:41;;;;;;;41.65;14.25;;;;;;;8.48;100.00;101482.28;5086592;28;20111;-68
2023/05/06 02:01:07;;;;;;;23.90;13.77;;;;;;;8.41;100.00;101478.56;5084827;28;20024;-68
2023/05/06 02:03:32;;;;;;;24.45;13.50;;;;;;;8.40;100.00;101491.72;5085063;28;20029;-68
2023/05/06 02:05:57;;;;;;;21.60;11.40;;;;;;;8.36;100.00;101474.94;5086286;28;20024;-67
2023/05/06 02:08:23;;;;;;;23.00;12.98;;;;;;;8.36;100.00;101477.59;5083921;28;20032;-71
2023/05/06 02:10:49;;;;;;;22.05;12.68;;;;;;;8.40;100.00;101475.91;5087182;28;20026;-71
2023/05/06 02:13:17;;;;;;;22.50;12.43;;;;;;;8.37;100.00;101484.63;5083822;28;20099;-67
2023/05/06 02:15:42;;;;;;;20.55;10.90;;;;;;;8.28;100.00;101474.75;5086144;28;20371;-69
2023/05/06 02:18:08;;;;;;;22.75;11.27;;;;;;;8.19;100.00;101479.81;5084663;28;20055;-67
2023/05/06 02:20:33;;;;;;;20.45;10.00;;;;;;;8.21;100.00;101483.34;5084872;28;20510;-67
2023/05/06 02:22:59;;;;;;;20.45;10.25;;;;;;;8.18;100.00;101486.84;5085689;28;20123;-70
2023/05/06 02:25:24;;;;;;;19.80;9.82;;;;;;;8.15;100.00;101488.47;5083683;28;20430;-70
2023/05/06 02:27:49;;;;;;;20.52;10.70;;;;;;;8.15;100.00;101488.47;5086475;28;20028;-71
2023/05/06 02:30:14;;;;;;;21.55;11.10;;;;;;;8.10;100.00;101490.13;5083304;28;20024;-70
2023/05/06 02:32:40;;;;;;;21.98;11.68;;;;;;;8.12;100.00;101486.66;5085626;28;20048;-69
2023/05/06 02:35:06;;;;;;;21.73;10.75;;;;;;;8.06;100.00;101477.72;5084688;28;20024;-70
2023/05/06 02:37:31;;;;;;;20.73;10.52;;;;;;;8.06;100.00;101483.00;5084556;28;20463;-68
2023/05/06 02:39:57;;;;;;;20.48;10.63;;;;;;;8.08;100.00;101489.19;5085731;28;20382;-67
2023/05/06 02:42:22;;;;;;;21.23;11.25;;;;;;;8.11;100.00;101487.53;5082895;28;20115;-68
2023/05/06 02:44:47;;;;;;;21.80;11.25;;;;;;;8.07;100.00;101480.41;5085781;28;20046;-70
2023/05/06 02:47:13;;;;;;;21.15;10.82;;;;;;;8.10;100.00;101476.97;5083369;28;20029;-67
2023/05/06 02:49:38;;;;;;;21.48;11.52;;;;;;;8.06;100.00;101475.09;5067022;28;20029;-68
2023/05/06 02:52:04;;;;;;;20.40;8.73;;;;;;;8.08;100.00;101481.28;5084418;28;20426;-69
2023/05/06 02:54:29;;;;;;;20.98;9.80;;;;;;;8.02;100.00;101476.75;5083839;28;20039;-70
2023/05/06 02:56:54;;;;;;;19.45;9.10;;;;;;;8.01;100.00;101473.25;5067557;28;20111;-66
2023/05/06 02:59:20;;;;;;;19.23;8.50;;;;;;;7.94;100.00;101476.56;5082456;28;20490;-69
2023/05/06 03:01:46;;;;;;;21.23;11.30;;;;;;;8.02;100.00;101476.75;5085799;28;20032;-68
2023/05/06 03:04:12;;;;;;;23.38;13.60;;;;;;;8.03;100.00;101476.78;5083035;28;20028;-67
2023/05/06 03:06:37;;;;;;;21.88;11.70;;;;;;;7.98;100.00;101469.63;5084572;28;20112;-67
2023/05/06 03:09:03;;;;;;;21.40;11.57;;;;;;;7.88;100.00;101471.16;5084306;28;20425;-70
2023/05/06 03:11:30;;;;;;;22.70;11.65;;;;;;;7.74;100.00;101469.91;5083352;28;20075;-70
2023/05/06 03:13:56;;;;;;;27.70;17.52;;;;;;;7.95;100.00;101474.81;5085417;28;20056;-68
2023/05/06 03:16:21;;;;;;;28.40;18.35;;;;;;;8.02;100.00;101472.41;5082125;28;20048;-68
2023/05/06 03:18:46;;;;;;;26.63;16.70;;;;;;;8.01;100.00;101480.25;5085373;28;20020;-67
2023/05/06 03:21:12;;;;;;;27.33;17.52;;;;;;;8.00;100.00;101481.97;5083165;28;20115;-67
2023/05/06 03:23:37;;;;;;;26.52;17.38;;;;;;;8.13;100.00;101474.41;5084069;28;20505;-69
2023/05/06 03:26:03;;;;;;;29.70;19.92;;;;;;;8.20;100.00;101471.06;5065805;28;20096;-69
2023/05/06 03:28:28;;;;;;;24.70;15.52;;;;;;;8.07;100.00;101468.97;5083167;28;20070;-69
2023/05/06 03:30:53;;;;;;;26.33;16.73;;;;;;;8.14;100.00;101473.53;5085106;28;20051;-67
2023/05/06 03:33:19;;;;;;;25.55;14.52;;;;;;;8.09;100.00;101475.16;5081742;28;20163;-67
2023/05/06 03:35:44;;;;;;;23.48;13.88;;;;;;;7.98;100.00;101470.53;5084948;28;20028;-67
2023/05/06 03:38:10;;;;;;;22.95;12.68;;;;;;;7.95;100.00;101466.91;5082716;28;20109;-69
2023/05/06 03:40:35;;;;;;;22.95;12.57;;;;;;;7.86;100.00;101467.56;5083638;28;20087;-68
2023/05/06 03:43:01;;;;;;;22.83;11.75;;;;;;;7.79;100.00;101460.38;5083816;28;20024;-67
2023/05/06 03:45:26;;;;;;;21.65;11.40;;;;;;;7.80;100.00;101467.44;5082139;28;20041;-67
2023/05/06 03:47:51;;;;;;;21.30;11.45;;;;;;;7.73;100.00;101465.47;5085197;28;20560;-67
2023/05/06 03:50:17;;;;;;;21.63;11.20;;;;;;;7.67;100.00;101469.75;5063534;28;20063;-67
2023/05/06 03:52:42;;;;;;;20.88;10.90;;;;;;;7.69;100.00;101472.44;5084182;28;20032;-67
2023/05/06 03:55:08;;;;;;;21.27;10.68;;;;;;;7.66;100.00;101470.59;5082938;28;20051;-67
2023/05/06 03:57:33;;;;;;;20.92;11.10;;;;;;;7.65;100.00;101471.44;5082031;28;20033;-71
2023/05/06 03:59:59;;;;;;;23.00;11.38;;;;;;;7.69;100.00;101467.16;5083774;28;20063;-67
2023/05/06 04:02:24;;;;;;;23.48;12.40;;;;;;;7.72;100.00;101468.97;5063583;28;20025;-67
2023/05/06 04:04:49;;;;;;;21.92;11.73;;;;;;;7.66;100.00;101465.34;5084794;28;20428;-67
2023/05/06 04:07:15;;;;;;;21.20;11.25;;;;;;;7.66;100.00;101473.22;5081477;28;20064;-68
2023/05/06 04:09:40;;;;;;;23.52;14.35;;;;;;;7.87;100.00;101477.25;5083786;28;20032;-67
2023/05/06 04:12:06;;;;;;;21.85;12.00;;;;;;;7.79;100.00;101474.44;5082768;28;20053;-66
2023/05/06 04:14:31;;;;;;;22.83;12.50;;;;;;;7.90;100.00;101481.72;5082512;28;20107;-67
2023/05/06 04:16:57;;;;;;;26.80;16.38;;;;;;;8.09;100.00;101480.44;5084150;28;20032;-67
2023/05/06 04:19:22;;;;;;;27.75;17.20;;;;;;;8.22;100.00;101490.41;5063018;28;20033;-67
2023/05/06 04:21:47;;;;;;;28.58;17.75;;;;;;;8.32;100.00;101494.16;5076403;28;20032;-68
2023/05/06 04:24:14;;;;;;;27.75;17.42;;;;;;;8.40;100.00;101491.72;5081646;28;20036;-67
2023/05/06 04:26:40;;;;;;;27.77;17.33;;;;;;;8.45;100.00;101500.66;5083320;28;20036;-67
2023/05/06 04:29:06;;;;;;;27.23;17.17;;;;;;;8.54;100.00;101495.59;5082750;28;20028;-66
2023/05/06 04:31:33;;;;;;;27.90;18.05;;;;;;;8.64;100.00;101500.22;5082047;28;20055;-67
2023/05/06 04:33:59;;;;;;;28.85;17.60;;;;;;;8.69;100.00;101501.22;5083809;28;20039;-67
2023/05/06 04:36:24;;;;;;;26.55;15.30;;;;;;;8.61;100.00;101496.63;5081438;28;20029;-67
2023/05/06 04:38:51;;;;;;;26.20;16.27;;;;;;;8.71;100.00;101499.50;5066236;28;20024;-67
2023/05/06 04:41:17;;;;;;;27.60;16.63;;;;;;;8.76;100.00;101507.50;5081136;28;20422;-68
2023/05/06 04:43:42;;;;;;;26.05;15.90;;;;;;;8.77;100.00;101508.41;5083733;28;20024;-68
2023/05/06 04:46:09;;;;;;;26.45;15.80;;;;;;;8.79;100.00;101504.06;5082154;28;20194;-67
2023/05/06 04:48:35;;;;;;;27.35;16.42;;;;;;;8.84;100.00;101513.84;5082348;28;20032;-71
2023/05/06 04:51:00;;;;;;;27.67;16.80;;;;;;;8.89;100.00;101513.94;5083607;28;20028;-68
2023/05/06 04:53:26;;;;;;;26.58;16.25;;;;;;;8.94;100.00;101503.50;5081055;28;20086;-69
2023/05/06 04:55:51;;;;;;;25.92;16.08;;;;;;;9.00;100.00;101507.16;5084293;28;20024;-69
2023/05/06 04:58:17;;;;;;;27.23;16.10;;;;;;;9.04;100.00;101511.66;5080933;28;20025;-70
2023/05/06 05:00:43;;;;;;;26.35;15.80;;;;;;;9.11;100.00;101524.97;5083235;28;20040;-71
2023/05/06 05:03:08;;;;;;;26.67;15.23;;;;;;;9.15;100.00;101518.91;5081965;28;20081;-71
2023/05/06 05:05:33;;;;;;;26.02;14.95;;;;;;;9.20;100.00;101523.41;5082232;28;20126;-70
2023/05/06 05:07:59;;;;;;;27.42;14.98;;;;;;;9.24;100.00;101519.06;5084533;28;20028;-68
2023/05/06 05:10:24;;;;;;;26.30;15.02;;;;;;;9.31;100.00;101526.25;5084905;28;20101;-68
2023/05/06 05:12:50;;;;;;;25.55;15.35;;;;;;;9.36;100.00;101523.72;5087988;28;20035;-68
2023/05/06 05:15:15;;;;;;;25.48;14.70;;;;;;;9.42;100.00;101532.66;5084784;28;20031;-68
2023/05/06 05:17:41;;;;;;;25.52;14.57;;;;;;;9.50;100.00;101531.91;5086977;28;20135;-69
2023/05/06 05:20:07;;;;;;;24.42;13.77;;;;;;;9.56;100.00;101537.31;5067931;28;20059;-68
2023/05/06 05:22:32;;;;;;;25.25;14.23;;;;;;;9.59;100.00;101532.09;5085596;28;20067;-68
2023/05/06 05:24:58;;;;;;;25.52;13.90;;;;;;;9.62;100.00;101547.97;5087311;28;20051;-68
2023/05/06 05:27:23;;;;;;;25.65;13.95;;;;;;;9.64;100.00;101529.53;5084295;28;20035;-70
2023/05/06 05:29:48;;;;;;;24.05;13.98;;;;;;;9.65;100.00;101537.47;5080261;28;20467;-69
2023/05/06 05:32:14;;;;;;;24.80;13.80;;;;;;;9.67;100.00;101525.22;5086956;28;20561;-70
2023/05/06 05:34:39;;;;;;;24.63;14.05;;;;;;;9.71;100.00;101532.34;5085456;28;20028;-68
2023/05/06 05:37:04;;;;;;;24.17;14.15;;;;;;;9.73;100.00;101535.88;5085502;28;20028;-68
2023/05/06 05:39:30;;;;;;;24.80;13.70;;;;;;;9.77;100.00;101540.38;5086752;28;20032;-70
2023/05/06 05:41:55;;;;;;;25.20;14.02;;;;;;;9.83;100.00;101546.59;5084173;28;20087;-68
2023/05/06 05:44:20;;;;;;;25.13;13.45;;;;;;;9.90;100.00;101551.13;5087611;28;20039;-68
2023/05/06 05:46:46;;;;;;;23.30;12.73;;;;;;;9.97;100.00;101553.03;5084231;28;20455;-71
2023/05/06 05:49:11;;;;;;;25.50;13.18;;;;;;;10.06;100.00;101545.28;5086129;28;20419;-69
2023/05/06 05:51:36;;;;;;;24.92;12.68;;;;;;;10.15;100.00;101544.56;5085658;28;20390;-68
2023/05/06 05:54:02;;;;;;;24.60;12.90;;;;;;;10.25;100.00;101546.50;5085004;28;20025;-69
2023/05/06 05:56:27;;;;;;;23.65;11.90;;;;;;;10.35;100.00;101544.91;5086919;28;20059;-69
2023/05/06 05:58:52;;;;;;;23.40;12.02;;;;;;;10.40;100.00;101540.59;5083849;28;20059;-68
2023/05/06 06:01:18;;;;;;;23.30;11.88;;;;;;;10.52;100.00;101539.91;5086837;28;20074;-69
2023/05/06 06:03:43;;;;;;;24.27;12.00;;;;;;;10.60;100.00;101537.38;5084330;28;20041;-68
2023/05/06 06:06:09;;;;;;;23.02;11.40;;;;;;;10.69;100.00;101536.63;5085774;28;20032;-71
2023/05/06 06:08:34;;;;;;;23.38;11.80;;;;;;;10.76;100.00;101536.75;5085425;28;20032;-67
2023/05/06 06:11:04;;;;;;;23.27;11.07;;;;;;;10.82;100.00;101538.59;5084291;28;20368;-70
2023/05/06 06:13:30;;;;;;;21.52;10.52;;;;;;;10.85;100.00;101529.78;5086220;28;20035;-70
2023/05/06 06:15:56;;;;;;;24.80;11.02;;;;;;;10.89;100.00;101535.19;5083683;28;20021;-69
2023/05/06 06:18:21;;;;;;;23.67;11.40;;;;;;;10.98;100.00;101529.13;5086877;28;20035;-70
2023/05/06 06:20:46;;;;;;;22.63;11.07;;;;;;;11.04;100.00;101523.91;5082614;28;20028;-68
2023/05/06 06:23:12;;;;;;;22.83;10.10;;;;;;;11.04;100.00;101529.19;5085641;28;20025;-71
2023/05/06 06:25:37;;;;;;;22.40;10.65;;;;;;;11.13;100.00;101534.59;5084854;28;20105;-67
2023/05/06 06:28:03;;;;;;;22.45;10.93;;;;;;;11.22;100.00;101535.59;5084269;28;20036;-68
2023/05/06 06:30:28;;;;;;;22.90;10.60;;;;;;;11.27;100.00;101539.16;5086000;28;20032;-67
2023/05/06 06:32:55;;;;;;;22.13;9.88;;;;;;;11.31;100.00;101546.28;5082937;28;20079;-72
2023/05/06 06:35:20;;;;;;;22.42;9.60;;;;;;;11.37;100.00;101549.00;5078938;28;20064;-67
2023/05/06 06:37:46;;;;;;;21.55;9.88;;;;;;;11.44;100.00;101539.38;5085907;28;20052;-68
2023/05/06 06:40:12;;;;;;;21.77;10.00;;;;;;;11.49;100.00;101537.69;5084053;28;20089;-69
2023/05/06 06:42:37;;;;;;;23.30;9.57;;;;;;;11.54;100.00;101535.97;5084721;28;20029;-68
2023/05/06 06:45:04;;;;;;;21.60;9.73;;;;;;;11.60;100.00;101540.44;5085162;28;20035;-68
2023/05/06 06:47:29;;;;;;;22.60;10.38;;;;;;;11.71;100.00;101543.22;5083429;28;20025;-69
2023/05/06 06:49:54;;;;;;;21.50;9.95;;;;;;;11.74;100.00;101546.78;5086120;28;20103;-69
2023/05/06 06:52:20;;;;;;;21.42;9.70;;;;;;;11.80;100.00;101546.84;5082826;28;20024;-67
2023/05/06 06:54:45;;;;;;;21.90;9.98;;;;;;;11.84;100.00;101538.06;5085783;28;20091;-69
2023/05/06 06:57:11;;;;;;;21.63;9.85;;;;;;;11.97;100.00;101540.84;5083702;28;20020;-68
2023/05/06 06:59:36;;;;;;;21.10;9.60;;;;;;;12.15;100.00;101541.03;5083915;28;20060;-71
2023/05/06 07:02:01;;;;;;;21.02;9.00;;;;;;;12.22;100.00;101542.00;5085090;28;20107;-67
2023/05/06 07:04:27;;;;;;;21.40;9.40;;;;;;;12.26;100.00;101537.59;5082627;28;20111;-68
2023/05/06 07:06:52;;;;;;;21.92;9.55;;;;;;;12.28;100.00;101533.22;5068207;28;20116;-67
2023/05/06 07:09:17;;;;;;;22.00;10.02;;;;;;;12.33;100.00;101547.38;5082760;28;20036;-68
2023/05/06 07:11:43;;;;;;;23.00;10.15;;;;;;;12.39;100.00;101550.06;5084753;28;20495;-67
2023/05/06 07:14:10;;;;;;;22.08;10.05;;;;;;;12.50;100.00;101543.09;5083913;28;20060;-67
2023/05/06 07:16:35;;;;;;;22.60;9.90;;;;;;;12.68;100.00;101552.06;5083494;28;20490;-72
2023/05/06 07:19:01;;;;;;;22.63;9.95;;;;;;;12.79;100.00;101553.03;5084638;28;20036;-68
2023/05/06 07:21:26;;;;;;;23.25;10.52;;;;;;;12.96;100.00;101546.91;5082366;28;20028;-69
2023/05/06 07:23:52;;;;;;;23.15;10.43;;;;;;;13.07;100.00;101545.22;5085519;28;20445;-71
2023/05/06 07:26:17;;;;;;;23.20;11.00;;;;;;;13.18;100.00;101556.78;5082291;28;20040;-68
2023/05/06 07:28:43;;;;;;;24.63;11.63;;;;;;;13.31;100.00;101549.75;5084576;28;20028;-69
2023/05/06 07:31:08;;;;;;;24.48;11.68;;;;;;;13.35;100.00;101548.03;5083240;28;20090;-68
2023/05/06 07:33:34;;;;;;;25.67;11.60;;;;;;;13.39;100.00;101545.38;5082830;28;20048;-70
2023/05/06 07:35:59;;;;;;;26.73;12.32;;;;;;;13.43;100.00;101548.97;5084998;28;20030;-68
2023/05/06 07:38:24;;;;;;;27.08;13.18;;;;;;;13.50;100.00;101545.44;5081765;28;20036;-68
2023/05/06 07:40:50;;;;;;;28.45;13.77;;;;;;;13.57;100.00;101541.94;5085230;28;20040;-70
2023/05/06 07:43:16;;;;;;;28.77;14.68;;;;;;;13.56;100.00;101545.44;5082441;28;20029;-71
2023/05/06 07:45:41;;;;;;;28.50;15.30;;;;;;;13.57;100.00;101541.00;5083915;28;20029;-67
2023/05/06 07:48:07;;;;;;;31.05;15.73;;;;;;;13.66;100.00;101548.13;5065468;28;20393;-68
2023/05/06 07:50:33;;;;;;;26.90;13.98;;;;;;;13.80;100.00;101543.72;5082742;28;20017;-68
2023/05/06 07:52:59;;;;;;;28.42;14.55;;;;;;;13.94;100.00;101551.75;5084538;28;20462;-67
2023/05/06 07:55:24;;;;;;;28.23;14.73;;;;;;;14.03;100.00;101550.88;5063838;28;20039;-69
2023/05/06 07:57:50;;;;;;;29.38;15.43;;;;;;;14.17;100.00;101557.09;5084854;28;20111;-72
2023/05/06 08:00:16;;;;;;;27.75;15.35;;;;;;;14.24;100.00;101550.91;5081736;28;20040;-67
2023/05/06 08:02:43;;;;;;;28.63;14.70;;;;;;;14.39;100.00;101551.78;5083717;28;20020;-67
2023/05/06 08:05:09;;;;;;;28.50;15.13;;;;;;;14.45;100.00;101549.13;5082911;28;20024;-67
2023/05/06 08:07:35;;;;;;;29.25;16.00;;;;;;;14.60;100.00;101554.41;5082747;28;20029;-67
2023/05/06 08:10:01;;;;;;;29.00;14.88;;;;;;;14.74;100.00;101546.44;5066088;28;20024;-68
2023/05/06 08:12:26;;;;;;;28.48;15.15;;;;;;;15.03;100.00;101549.91;5081220;28;20494;-69
2023/05/06 08:14:53;;;;;;;28.77;14.68;;;;;;;15.14;100.00;101561.44;5084625;28;20032;-69
2023/05/06 08:17:19;;;;;;;25.25;12.73;;;;;;;15.21;100.00;101555.19;5081630;28;20028;-67
2023/05/06 08:19:44;;;;;;;25.38;12.15;;;;;;;15.45;100.00;101546.22;5083461;28;20020;-68
2023/05/06 08:22:10;;;;;;;27.25;13.32;;;;;;;15.77;100.00;101552.25;5082505;28;20036;-68
2023/05/06 08:24:35;;;;;;;23.88;11.60;;;;;;;16.80;100.00;101553.25;5082501;28;20017;-69
2023/05/06 08:27:01;;;;;;;22.77;9.55;;;;;;;17.65;100.00;101542.47;5083649;28;20356;-70
2023/05/06 08:29:26;;;;;;;21.42;8.93;;;;;;;18.49;100.00;101535.84;5081001;28;20114;-72
2023/05/06 08:31:51;;;;;;;22.60;8.50;;;;;;;18.86;100.00;101537.81;5084432;28;20052;-71
2023/05/06 08:34:19;;;;;;;22.60;9.65;;;;;;;19.16;100.00;101547.97;5081412;28;20035;-74
2023/05/06 08:36:44;;;;;;;21.38;9.02;;;;;;;19.13;100.00;101541.78;5083595;28;20035;-70
2023/05/06 08:39:10;;;;;;;21.63;8.73;;;;;;;18.54;100.00;101531.28;5082389;28;20028;-71
2023/05/06 08:41:37;;;;;;;21.30;8.25;;;;;;;18.19;100.00;101544.34;5082188;28;20475;-71
2023/05/06 08:44:04;;;;;;;20.65;7.55;;;;;;;18.14;100.00;101537.31;5082907;28;20016;-73
2023/05/06 08:46:30;;;;;;;21.23;8.27;;;;;;;18.40;100.00;101534.19;5063415;28;20056;-74
2023/05/06 08:48:59;;;;;;;20.23;7.78;;;;;;;18.77;100.00;101536.19;5084231;28;20028;-70
2023/05/06 08:51:28;;;;;;;20.33;7.20;;;;;;;18.79;100.00;101537.94;5076931;28;20036;-71
2023/05/06 08:53:54;;;;;;;16.60;5.07;;;;;;;18.60;85.55;101533.84;5077156;28;20020;-70
2023/05/06 08:56:25;;;;;;;18.35;6.00;;;;;;;18.33;89.50;101535.22;5083790;28;20024;-72
2023/05/06 08:58:52;;;;;;;20.17;6.65;;;;;;;18.40;95.18;101532.41;5076419;28;20031;-69
2023/05/06 09:01:18;;;;;;;19.00;6.30;;;;;;;18.51;96.21;101525.97;5083884;28;20016;-73
2023/05/06 09:03:44;;;;;;;18.58;5.60;;;;;;;18.68;89.21;101525.66;5081718;28;20035;-70
2023/05/06 09:06:10;;;;;;;18.83;5.80;;;;;;;18.82;84.09;101532.53;5082431;28;20109;-71
2023/05/06 09:08:35;;;;;;;18.17;5.90;;;;;;;18.86;82.57;101521.75;5064927;28;20103;-70
2023/05/06 09:11:00;;;;;;;18.73;6.13;;;;;;;18.79;83.24;101515.66;5081098;28;20040;-69
2023/05/06 09:13:26;;;;;;;17.23;5.57;;;;;;;19.16;85.25;101520.28;5083831;28;20123;-73
2023/05/06 09:15:53;;;;;;;18.67;5.47;;;;;;;19.47;86.70;101517.84;5068939;28;20045;-73
2023/05/06 09:18:18;;;;;;;17.85;5.70;;;;;;;19.78;85.86;101513.59;5078290;28;20029;-73
2023/05/06 09:20:48;;;;;;;17.77;5.00;;;;;;;20.12;76.05;101529.75;5079565;28;20035;-74
2023/05/06 09:23:15;;;;;;;16.92;5.07;;;;;;;21.01;69.68;101523.88;5082980;28;20356;-73
2023/05/06 09:25:42;;;;;;;17.52;5.18;;;;;;;21.58;63.62;101516.84;5078435;28;20024;-74
2023/05/06 09:28:10;;;;;;;17.60;5.57;;;;;;;22.36;59.80;101519.75;5080756;28;20034;-73
2023/05/06 09:30:46;;;;;;;17.20;5.60;;;;;;;22.92;58.79;101519.56;5083914;28;20021;-74
2023/05/06 09:33:11;;;;;;;15.65;4.82;;;;;;;24.13;55.46;101510.38;5081024;28;20128;-74
2023/05/06 09:35:39;;;;;;;16.45;5.20;;;;;;;24.66;51.18;101522.53;5083347;28;20538;-74
2023/05/06 09:38:06;;;;;;;17.48;5.40;;;;;;;24.84;50.15;101528.06;5080419;28;20387;-74
2023/05/06 09:40:32;;;;;;;15.38;4.40;;;;;;;25.33;49.59;101520.44;5076212;28;20039;-75
2023/05/06 09:42:59;;;;;;;14.70;4.75;;;;;;;25.53;46.40;101515.91;5083197;28;20377;-74
2023/05/06 09:45:25;;;;;;;16.98;4.90;;;;;;;25.32;45.44;101517.81;5081149;28;20056;-74
2023/05/06 09:47:52;;;;;;;15.63;4.53;;;;;;;25.96;45.44;101510.22;5082368;28;20031;-74
2023/05/06 09:50:19;;;;;;;13.95;4.53;;;;;;;26.02;43.72;101510.84;5063763;28;20501;-74
2023/05/06 09:52:46;;;;;;;14.55;4.22;;;;;;;26.35;45.13;101507.34;5081696;28;20074;-74
2023/05/06 09:55:13;;;;;;;16.85;4.50;;;;;;;27.07;44.34;101513.53;5083994;28;20073;-75
2023/05/06 09:57:39;;;;;;;14.10;4.38;;;;;;;26.66;41.68;101504.88;5084058;28;20032;-66
2023/05/06 10:00:08;;;;;;;12.43;3.55;;;;;;;27.34;40.13;101503.97;5087421;28;20422;-68
2023/05/06 10:02:35;;;;;;;10.95;3.30;;;;;;;27.96;37.98;101495.88;5079842;28;20029;-68
2023/05/06 10:05:04;;;;;;;13.55;3.78;;;;;;;28.66;38.48;101495.38;5079712;28;20082;-69
2023/05/06 10:07:31;;;;;;;9.90;2.90;;;;;;;29.06;37.26;101503.75;5087205;28;20370;-69
2023/05/06 10:09:57;;;;;;;7.93;2.70;;;;;;;29.11;37.51;101490.75;5084201;28;20032;-68
2023/05/06 10:12:24;;;;;;;12.23;3.05;;;;;;;29.31;36.75;101494.03;5085774;28;20024;-67
2023/05/06 10:14:49;;;;;;;7.60;2.55;;;;;;;29.32;35.88;101488.50;5084872;28;20039;-69
2023/05/06 10:17:17;;;;;;;5.97;2.00;;;;;;;29.43;33.48;101489.66;5084790;28;20033;-68
2023/05/06 10:19:44;;;;;;;6.75;2.00;;;;;;;29.50;33.87;101486.41;5085684;28;20035;-69
2023/05/06 10:22:17;;;;;;;6.63;2.40;;;;;;;29.26;33.96;101483.47;5084115;28;20021;-67
2023/05/06 10:24:54;;;;;;;9.75;2.50;;;;;;;28.68;35.25;101490.72;5085817;28;20061;-70
2023/05/06 10:27:23;;;;;;;12.20;2.90;;;;;;;28.06;37.43;101486.28;5067400;28;20391;-72
2023/05/06 10:29:52;;;;;;;8.13;2.40;;;;;;;27.69;35.50;101480.22;5066514;28;20028;-67
2023/05/06 10:32:19;;;;;;;7.25;2.40;;;;;;;27.91;36.00;101471.69;5084579;28;20044;-67
2023/05/06 10:34:53;;;;;;;7.85;2.35;;;;;;;26.59;36.25;101485.31;5085435;28;20084;-68
2023/05/06 10:37:24;;;;;;;6.55;2.03;;;;;;;25.96;39.36;101477.72;5084851;28;20024;-69
2023/05/06 10:39:52;;;;;;;7.67;2.10;;;;;;;25.77;37.12;101466.94;5084330;28;20078;-71
2023/05/06 10:42:18;;;;;;;9.05;2.20;;;;;;;26.35;38.05;101472.13;5085028;28;20028;-67
2023/05/06 10:45:00;;;;;;;7.38;2.40;;;;;;;28.01;37.61;101469.34;5085299;28;20024;-70
2023/05/06 10:47:26;;;;;;;10.07;2.47;;;;;;;29.50;35.01;101472.78;5085835;28;20024;-68
2023/05/06 10:50:18;;;;;;;9.10;2.60;;;;;;;29.65;34.88;101470.94;5083962;28;20386;-70
2023/05/06 10:52:45;;;;;;;10.25;2.50;;;;;;;28.39;34.00;101463.44;5081854;28;20103;-69
2023/05/06 10:55:40;;;;;;;6.03;2.30;;;;;;;29.21;35.68;101464.69;5067265;28;20382;-69
2023/05/06 10:58:13;;;;;;;8.38;2.30;;;;;;;28.82;35.30;101458.09;5044251;28;20045;-71
2023/05/06 11:00:39;;;;;;;9.18;2.35;;;;;;;27.92;35.54;101457.16;5085694;28;20031;-75
2023/05/06 11:03:06;;;;;;;7.60;2.38;;;;;;;27.39;36.72;101459.34;5082732;28;20028;-67
2023/05/06 11:05:45;;;;;;;7.70;2.30;;;;;;;28.30;36.95;101456.72;5078014;28;20103;-73
2023/05/06 11:08:12;;;;;;;8.70;2.30;;;;;;;29.25;34.99;101453.63;5080422;28;20547;-70